sensor_id;sensor_type;location;lat;lon;timestamp;pressure;altitude;pressure_sealevel;temperature;humidity
10688;BME280;5392;42.688;23.298;2023-04-22T00:02:13;57442.66;;;-144.48;100.00
10688;BME280;5392;42.688;23.298;2023-04-22T00:04:42;57467.69;;;-144.48;100.00
10688;BME280;5392;42.688;23.298;2023-04-22T00:07:13;57425.94;;;-144.48;100.00
10688;BME280;5392;42.688;23.298;2023-04-22T00:09:40;57396.72;;;-144.48;100.00
10688;BME280;5392;42.688;23.298;2023-04-22T00:12:08;57425.94;;;-144.48;100.00
10688;BME280;5392;42.688;23.298;2023-04-22T00:14:37;57394.63;;;-144.48;100.00
10688;BME280;5392;42.688;23.298;2023-04-22T00:17:04;57405.06;;;-144.48;100.00
10688;BME280;5392;42.688;23.298;2023-04-22T00:19:33;57423.88;;;-144.48;100.00
10688;BME280;5392;42.688;23.298;2023-04-22T00:22:00;57461.44;;;-144.48;100.00
10688;BME280;5392;42.688;23.298;2023-04-22T00:24:27;57411.34;;;-144.48;100.00
10688;BME280;5392;42.688;23.298;2023-04-22T00:26:53;57432.22;;;-144.48;100.00
10688;BME280;5392;42.688;23.298;2023-04-22T00:29:21;57425.94;;;-144.48;100.00
10688;BME280;5392;42.688;23.298;2023-04-22T00:31:48;57442.66;;;-144.48;100.00
10688;BME280;5392;42.688;23.298;2023-04-22T00:34:14;57448.91;;;-144.48;100.00
10688;BME280;5392;42.688;23.298;2023-04-22T00:36:43;57405.06;;;-144.48;100.00
10688;BME280;5392;42.688;23.298;2023-04-22T00:39:10;57425.94;;;-144.48;100.00
10688;BME280;5392;42.688;23.298;2023-04-22T00:41:38;57442.66;;;-144.48;100.00
10688;BME280;5392;42.688;23.298;2023-04-22T00:44:08;57419.69;;;-144.48;100.00
10688;BME280;5392;42.688;23.298;2023-04-22T00:46:37;57413.44;;;-144.48;100.00
10688;BME280;5392;42.688;23.298;2023-04-22T00:49:06;57417.59;;;-144.48;100.00
10688;BME280;5392;42.688;23.298;2023-04-22T00:51:33;57465.59;;;-144.48;100.00
10688;BME280;5392;42.688;23.298;2023-04-22T00:54:00;57467.69;;;-144.48;100.00
10688;BME280;5392;42.688;23.298;2023-04-22T00:56:28;57455.16;;;-144.48;100.00
10688;BME280;5392;42.688;23.298;2023-04-22T00:58:55;57423.88;;;-144.48;100.00
10688;BME280;5392;42.688;23.298;2023-04-22T01:01:23;57436.38;;;-144.48;100.00
10688;BME280;5392;42.688;23.298;2023-04-22T01:03:50;57455.16;;;-144.48;100.00
10688;BME280;5392;42.688;23.298;2023-04-22T01:06:18;57428.03;;;-144.48;100.00
10688;BME280;5392;42.688;23.298;2023-04-22T01:08:48;57421.78;;;-144.48;100.00
10688;BME280;5392;42.688;23.298;2023-04-22T01:11:15;57425.94;;;-144.48;100.00
10688;BME280;5392;42.688;23.298;2023-04-22T01:13:41;57436.38;;;-144.48;100.00
10688;BME280;5392;42.688;23.298;2023-04-22T01:16:08;57438.47;;;-144.48;100.00
10688;BME280;5392;42.688;23.298;2023-04-22T01:18:35;57446.81;;;-144.48;100.00
10688;BME280;5392;42.688;23.298;2023-04-22T01:21:02;57425.94;;;-144.48;100.00
10688;BME280;5392;42.688;23.298;2023-04-22T01:23:29;57415.50;;;-144.48;100.00
10688;BME280;5392;42.688;23.298;2023-04-22T01:25:56;57451.00;;;-144.48;100.00
10688;BME280;5392;42.688;23.298;2023-04-22T01:28:23;57442.66;;;-144.48;100.00
10688;BME280;5392;42.688;23.298;2023-04-22T01:30:50;57446.81;;;-144.48;100.00
10688;BME280;5392;42.688;23.298;2023-04-22T01:33:17;57455.16;;;-144.48;100.00
10688;BME280;5392;42.688;23.298;2023-04-22T01:35:44;57417.59;;;-144.48;100.00
10688;BME280;5392;42.688;23.298;2023-04-22T01:38:12;57428.03;;;-144.48;100.00
10688;BME280;5392;42.688;23.298;2023-04-22T01:40:38;57438.47;;;-144.48;100.00
10688;BME280;5392;42.688;23.298;2023-04-22T01:43:05;57442.66;;;-144.48;100.00
10688;BME280;5392;42.688;23.298;2023-04-22T01:45:32;57482.31;;;-144.48;100.00
10688;BME280;5392;42.688;23.298;2023-04-22T01:47:59;57415.50;;;-144.48;100.00
10688;BME280;5392;42.688;23.298;2023-04-22T01:50:26;57425.94;;;-144.48;100.00
10688;BME280;5392;42.688;23.298;2023-04-22T01:52:53;57417.59;;;-144.48;100.00
10688;BME280;5392;42.688;23.298;2023-04-22T01:55:19;57448.91;;;-144.48;100.00
10688;BME280;5392;42.688;23.298;2023-04-22T01:57:46;57448.91;;;-144.48;100.00
10688;BME280;5392;42.688;23.298;2023-04-22T02:00:13;57421.78;;;-144.48;100.00
10688;BME280;5392;42.688;23.298;2023-04-22T02:02:40;57430.13;;;-144.48;100.00
10688;BME280;5392;42.688;23.298;2023-04-22T02:05:07;57436.38;;;-144.48;100.00
10688;BME280;5392;42.688;23.298;2023-04-22T02:07:34;57451.00;;;-144.48;100.00
10688;BME280;5392;42.688;23.298;2023-04-22T02:10:04;57448.91;;;-144.48;100.00
10688;BME280;5392;42.688;23.298;2023-04-22T02:12:31;57461.44;;;-144.48;100.00
10688;BME280;5392;42.688;23.298;2023-04-22T02:14:57;57448.91;;;-144.48;100.00
10688;BME280;5392;42.688;23.298;2023-04-22T02:17:24;57375.84;;;-144.48;100.00
10688;BME280;5392;42.688;23.298;2023-04-22T02:19:51;57442.66;;;-144.48;100.00
10688;BME280;5392;42.688;23.298;2023-04-22T02:22:18;57453.09;;;-144.48;100.00
10688;BME280;5392;42.688;23.298;2023-04-22T02:24:45;57440.56;;;-144.48;100.00
10688;BME280;5392;42.688;23.298;2023-04-22T02:27:11;57415.50;;;-144.48;100.00
10688;BME280;5392;42.688;23.298;2023-04-22T02:29:38;57405.06;;;-144.48;100.00
10688;BME280;5392;42.688;23.298;2023-04-22T02:32:05;57417.59;;;-144.48;100.00
10688;BME280;5392;42.688;23.298;2023-04-22T02:34:32;57473.97;;;-144.48;100.00
10688;BME280;5392;42.688;23.298;2023-04-22T02:36:59;57467.69;;;-144.48;100.00
10688;BME280;5392;42.688;23.298;2023-04-22T02:39:25;57444.72;;;-144.48;100.00
10688;BME280;5392;42.688;23.298;2023-04-22T02:41:52;57430.13;;;-144.48;100.00
10688;BME280;5392;42.688;23.298;2023-04-22T02:44:19;57419.69;;;-144.48;100.00
10688;BME280;5392;42.688;23.298;2023-04-22T02:46:46;57377.94;;;-144.48;100.00
10688;BME280;5392;42.688;23.298;2023-04-22T02:49:13;57438.47;;;-144.48;100.00
10688;BME280;5392;42.688;23.298;2023-04-22T02:51:40;57436.38;;;-144.48;100.00
10688;BME280;5392;42.688;23.298;2023-04-22T02:54:06;57436.38;;;-144.48;100.00
10688;BME280;5392;42.688;23.298;2023-04-22T02:56:33;57417.59;;;-144.48;100.00
10688;BME280;5392;42.688;23.298;2023-04-22T02:59:00;57461.44;;;-144.48;100.00
10688;BME280;5392;42.688;23.298;2023-04-22T03:01:26;57461.44;;;-144.48;100.00
10688;BME280;5392;42.688;23.298;2023-04-22T03:03:54;57396.72;;;-144.48;100.00
10688;BME280;5392;42.688;23.298;2023-04-22T03:06:21;57451.00;;;-144.48;100.00
10688;BME280;5392;42.688;23.298;2023-04-22T03:08:48;57430.13;;;-144.48;100.00
10688;BME280;5392;42.688;23.298;2023-04-22T03:11:15;57476.03;;;-144.48;100.00
10688;BME280;5392;42.688;23.298;2023-04-22T03:13:42;57421.78;;;-144.48;100.00
10688;BME280;5392;42.688;23.298;2023-04-22T03:16:08;57415.50;;;-144.48;100.00
10688;BME280;5392;42.688;23.298;2023-04-22T03:18:35;57411.34;;;-144.48;100.00
10688;BME280;5392;42.688;23.298;2023-04-22T03:21:02;57423.88;;;-144.48;100.00
10688;BME280;5392;42.688;23.298;2023-04-22T03:23:29;57421.78;;;-144.48;100.00
10688;BME280;5392;42.688;23.298;2023-04-22T03:25:56;57448.91;;;-144.48;100.00
10688;BME280;5392;42.688;23.298;2023-04-22T03:28:23;57434.28;;;-144.48;100.00
10688;BME280;5392;42.688;23.298;2023-04-22T03:30:49;57432.22;;;-144.48;100.00
10688;BME280;5392;42.688;23.298;2023-04-22T03:33:17;57436.38;;;-144.48;100.00
10688;BME280;5392;42.688;23.298;2023-04-22T03:35:47;57455.16;;;-144.48;100.00
10688;BME280;5392;42.688;23.298;2023-04-22T03:38:14;57442.66;;;-144.48;100.00
10688;BME280;5392;42.688;23.298;2023-04-22T03:40:42;57411.34;;;-144.48;100.00
10688;BME280;5392;42.688;23.298;2023-04-22T03:43:08;57448.91;;;-144.48;100.00
10688;BME280;5392;42.688;23.298;2023-04-22T03:45:35;57451.00;;;-144.48;100.00
10688;BME280;5392;42.688;23.298;2023-04-22T03:48:02;57394.63;;;-144.48;100.00
10688;BME280;5392;42.688;23.298;2023-04-22T03:50:29;57430.13;;;-144.48;100.00
10688;BME280;5392;42.688;23.298;2023-04-22T03:52:56;57442.66;;;-144.48;100.00
10688;BME280;5392;42.688;23.298;2023-04-22T03:55:22;57409.25;;;-144.48;100.00
10688;BME280;5392;42.688;23.298;2023-04-22T03:57:49;57388.38;;;-144.48;100.00
10688;BME280;5392;42.688;23.298;2023-04-22T04:00:16;57407.16;;;-144.48;100.00
10688;BME280;5392;42.688;23.298;2023-04-22T04:02:42;57436.38;;;-144.48;100.00
10688;BME280;5392;42.688;23.298;2023-04-22T04:05:10;57455.16;;;-144.48;100.00
10688;BME280;5392;42.688;23.298;2023-04-22T04:07:36;57455.16;;;-144.48;100.00
10688;BME280;5392;42.688;23.298;2023-04-22T04:10:04;57413.44;;;-144.48;100.00
10688;BME280;5392;42.688;23.298;2023-04-22T04:12:30;57446.81;;;-144.48;100.00
10688;BME280;5392;42.688;23.298;2023-04-22T04:14:57;57448.91;;;-144.48;100.00
10688;BME280;5392;42.688;23.298;2023-04-22T04:17:24;57415.50;;;-144.48;97.29
10688;BME280;5392;42.688;23.298;2023-04-22T04:19:52;57421.78;;;-144.48;90.74
10688;BME280;5392;42.688;23.298;2023-04-22T04:22:19;57428.03;;;-144.48;87.45
10688;BME280;5392;42.688;23.298;2023-04-22T04:24:46;57377.94;;;-144.48;84.65
10688;BME280;5392;42.688;23.298;2023-04-22T04:27:13;57396.72;;;-144.48;80.19
10688;BME280;5392;42.688;23.298;2023-04-22T04:29:39;57392.56;;;-144.48;76.29
10688;BME280;5392;42.688;23.298;2023-04-22T04:32:08;57380.03;;;-144.48;69.15
10688;BME280;5392;42.688;23.298;2023-04-22T04:34:35;57409.25;;;-144.48;62.56
10688;BME280;5392;42.688;23.298;2023-04-22T04:37:03;57386.28;;;-144.48;61.06
10688;BME280;5392;42.688;23.298;2023-04-22T04:39:29;57419.69;;;-144.48;63.03
10688;BME280;5392;42.688;23.298;2023-04-22T04:41:56;57407.16;;;-144.48;62.03
10688;BME280;5392;42.688;23.298;2023-04-22T04:44:24;57382.13;;;-144.48;62.13
10688;BME280;5392;42.688;23.298;2023-04-22T04:46:57;57382.13;;;-144.48;59.87
10688;BME280;5392;42.688;23.298;2023-04-22T04:49:24;57369.59;;;-144.48;59.32
10688;BME280;5392;42.688;23.298;2023-04-22T04:51:51;57417.59;;;-144.48;58.66
10688;BME280;5392;42.688;23.298;2023-04-22T04:54:17;57396.72;;;-144.48;58.16
10688;BME280;5392;42.688;23.298;2023-04-22T04:56:44;57386.28;;;-144.48;57.14
10688;BME280;5392;42.688;23.298;2023-04-22T04:59:11;57396.72;;;-144.48;57.04
10688;BME280;5392;42.688;23.298;2023-04-22T05:01:38;57421.78;;;-144.48;57.56
10688;BME280;5392;42.688;23.298;2023-04-22T05:04:05;57396.72;;;-144.48;56.09
10688;BME280;5392;42.688;23.298;2023-04-22T05:06:32;57390.47;;;-144.48;57.59
10688;BME280;5392;42.688;23.298;2023-04-22T05:08:59;57329.94;;;-144.48;56.33
10688;BME280;5392;42.688;23.298;2023-04-22T05:11:25;57392.56;;;-144.48;55.45
10688;BME280;5392;42.688;23.298;2023-04-22T05:13:52;57371.69;;;-144.48;55.56
10688;BME280;5392;42.688;23.298;2023-04-22T05:16:19;57373.75;;;-144.48;55.28
10688;BME280;5392;42.688;23.298;2023-04-22T05:18:46;57386.28;;;-144.48;55.50
10688;BME280;5392;42.688;23.298;2023-04-22T05:21:12;57323.66;;;-144.48;55.24
10688;BME280;5392;42.688;23.298;2023-04-22T05:23:39;57348.72;;;-144.48;56.48
10688;BME280;5392;42.688;23.298;2023-04-22T05:26:06;57348.72;;;-144.48;55.92
10688;BME280;5392;42.688;23.298;2023-04-22T05:28:32;57388.38;;;-144.48;55.99
10688;BME280;5392;42.688;23.298;2023-04-22T05:30:59;57403.00;;;-144.48;55.73
10688;BME280;5392;42.688;23.298;2023-04-22T05:33:26;57367.50;;;-144.48;54.69
10688;BME280;5392;42.688;23.298;2023-04-22T05:35:52;57392.56;;;-144.48;55.03
10688;BME280;5392;42.688;23.298;2023-04-22T05:38:19;57413.44;;;-144.48;56.89
10688;BME280;5392;42.688;23.298;2023-04-22T05:40:46;57371.69;;;-144.48;56.65
10688;BME280;5392;42.688;23.298;2023-04-22T05:43:14;57382.13;;;-144.48;56.11
10688;BME280;5392;42.688;23.298;2023-04-22T05:45:41;57392.56;;;-144.48;56.00
10688;BME280;5392;42.688;23.298;2023-04-22T05:48:08;57311.16;;;-144.48;55.91
10688;BME280;5392;42.688;23.298;2023-04-22T05:50:34;57388.38;;;-144.48;56.81
10688;BME280;5392;42.688;23.298;2023-04-22T05:53:01;57363.31;;;-144.48;57.37
10688;BME280;5392;42.688;23.298;2023-04-22T05:55:28;57386.28;;;-144.48;58.23
10688;BME280;5392;42.688;23.298;2023-04-22T05:57:54;57373.75;;;-144.48;57.22
10688;BME280;5392;42.688;23.298;2023-04-22T06:00:21;57369.59;;;-144.48;56.71
10688;BME280;5392;42.688;23.298;2023-04-22T06:02:48;57348.72;;;-144.48;56.56
10688;BME280;5392;42.688;23.298;2023-04-22T06:05:15;57380.03;;;-144.48;56.27
10688;BME280;5392;42.688;23.298;2023-04-22T06:07:43;57357.06;;;-144.48;55.34
10688;BME280;5392;42.688;23.298;2023-04-22T06:10:10;57369.59;;;-144.48;55.12
10688;BME280;5392;42.688;23.298;2023-04-22T06:12:36;57375.84;;;-144.48;56.13
10688;BME280;5392;42.688;23.298;2023-04-22T06:15:04;57392.56;;;-144.48;56.36
10688;BME280;5392;42.688;23.298;2023-04-22T06:17:31;57361.25;;;-144.48;56.55
10688;BME280;5392;42.688;23.298;2023-04-22T06:19:57;57365.41;;;-144.48;56.05
10688;BME280;5392;42.688;23.298;2023-04-22T06:22:24;57369.59;;;-144.48;55.46
10688;BME280;5392;42.688;23.298;2023-04-22T06:24:51;57309.06;;;-144.48;54.83
10688;BME280;5392;42.688;23.298;2023-04-22T06:27:17;57365.41;;;-144.48;54.63
10688;BME280;5392;42.688;23.298;2023-04-22T06:29:45;57340.38;;;-144.48;54.00
10688;BME280;5392;42.688;23.298;2023-04-22T06:32:12;57315.31;;;-144.48;55.85
10688;BME280;5392;42.688;23.298;2023-04-22T06:34:38;57361.25;;;-144.48;54.98
10688;BME280;5392;42.688;23.298;2023-04-22T06:37:05;57367.50;;;-144.48;56.22
10688;BME280;5392;42.688;23.298;2023-04-22T06:39:32;57394.63;;;-144.48;56.51
10688;BME280;5392;42.688;23.298;2023-04-22T06:41:58;57413.44;;;-144.48;56.09
10688;BME280;5392;42.688;23.298;2023-04-22T06:44:27;57352.91;;;-144.48;56.17
10688;BME280;5392;42.688;23.298;2023-04-22T06:46:54;57375.84;;;-144.48;56.07
10688;BME280;5392;42.688;23.298;2023-04-22T06:49:23;57361.25;;;-144.48;55.13
10688;BME280;5392;42.688;23.298;2023-04-22T06:51:50;57388.38;;;-144.48;55.88
10688;BME280;5392;42.688;23.298;2023-04-22T06:54:17;57377.94;;;-144.48;55.48
10688;BME280;5392;42.688;23.298;2023-04-22T06:56:43;57346.63;;;-144.48;54.45
10688;BME280;5392;42.688;23.298;2023-04-22T06:59:10;57361.25;;;-144.48;53.34
10688;BME280;5392;42.688;23.298;2023-04-22T07:01:37;57382.13;;;-144.48;54.12
10688;BME280;5392;42.688;23.298;2023-04-22T07:04:03;57354.97;;;-144.48;54.73
10688;BME280;5392;42.688;23.298;2023-04-22T07:06:30;57346.63;;;-144.48;53.55
10688;BME280;5392;42.688;23.298;2023-04-22T07:08:57;57380.03;;;-144.48;52.75
10688;BME280;5392;42.688;23.298;2023-04-22T07:11:23;57342.47;;;-144.48;52.88
10688;BME280;5392;42.688;23.298;2023-04-22T07:13:50;57342.47;;;-144.48;53.90
10688;BME280;5392;42.688;23.298;2023-04-22T07:16:17;57375.84;;;-144.48;53.63
10688;BME280;5392;42.688;23.298;2023-04-22T07:18:44;57371.69;;;-144.48;53.22
10688;BME280;5392;42.688;23.298;2023-04-22T07:21:11;57388.38;;;-144.48;53.30
10688;BME280;5392;42.688;23.298;2023-04-22T07:23:37;57357.06;;;-144.48;53.51
10688;BME280;5392;42.688;23.298;2023-04-22T07:26:04;57340.38;;;-144.48;54.00
10688;BME280;5392;42.688;23.298;2023-04-22T07:28:31;57332.03;;;-144.48;53.69
10688;BME280;5392;42.688;23.298;2023-04-22T07:30:57;57405.06;;;-144.48;54.86
10688;BME280;5392;42.688;23.298;2023-04-22T07:33:24;57394.63;;;-144.48;54.11
10688;BME280;5392;42.688;23.298;2023-04-22T07:35:51;57369.59;;;-144.48;53.78
10688;BME280;5392;42.688;23.298;2023-04-22T07:38:17;57377.94;;;-144.48;54.69
10688;BME280;5392;42.688;23.298;2023-04-22T07:40:44;57377.94;;;-144.48;54.88
10688;BME280;5392;42.688;23.298;2023-04-22T07:43:11;57396.72;;;-144.48;54.31
10688;BME280;5392;42.688;23.298;2023-04-22T07:45:38;57396.72;;;-144.48;55.83
10688;BME280;5392;42.688;23.298;2023-04-22T07:48:05;57392.56;;;-144.48;55.12
10688;BME280;5392;42.688;23.298;2023-04-22T07:50:31;57396.72;;;-144.48;55.57
10688;BME280;5392;42.688;23.298;2023-04-22T07:52:58;57371.69;;;-144.48;55.06
10688;BME280;5392;42.688;23.298;2023-04-22T07:55:26;57380.03;;;-144.48;56.66
10688;BME280;5392;42.688;23.298;2023-04-22T07:57:52;57392.56;;;-144.48;55.65
10688;BME280;5392;42.688;23.298;2023-04-22T08:00:19;57384.19;;;-144.48;55.02
10688;BME280;5392;42.688;23.298;2023-04-22T08:02:45;57367.50;;;-144.48;54.79
10688;BME280;5392;42.688;23.298;2023-04-22T08:05:13;57363.31;;;-144.48;52.94
10688;BME280;5392;42.688;23.298;2023-04-22T08:07:39;57413.44;;;-144.48;53.47
10688;BME280;5392;42.688;23.298;2023-04-22T08:10:07;57396.72;;;-144.48;53.67
10688;BME280;5392;42.688;23.298;2023-04-22T08:12:33;57340.38;;;-144.48;53.65
10688;BME280;5392;42.688;23.298;2023-04-22T08:15:00;57409.25;;;-144.48;53.84
10688;BME280;5392;42.688;23.298;2023-04-22T08:17:27;57350.81;;;-144.48;54.53
10688;BME280;5392;42.688;23.298;2023-04-22T08:19:54;57396.72;;;-144.48;54.28
10688;BME280;5392;42.688;23.298;2023-04-22T08:22:21;57352.91;;;-144.48;53.77
10688;BME280;5392;42.688;23.298;2023-04-22T08:24:49;57363.31;;;-144.48;53.95
10688;BME280;5392;42.688;23.298;2023-04-22T08:27:15;57390.47;;;-144.48;54.79
10688;BME280;5392;42.688;23.298;2023-04-22T08:29:42;57350.81;;;-144.48;53.93
10688;BME280;5392;42.688;23.298;2023-04-22T08:32:09;57365.41;;;-144.48;53.98
10688;BME280;5392;42.688;23.298;2023-04-22T08:34:36;57388.38;;;-144.48;52.86
10688;BME280;5392;42.688;23.298;2023-04-22T08:37:04;57388.38;;;-144.48;55.09
10688;BME280;5392;42.688;23.298;2023-04-22T08:39:31;57396.72;;;-144.48;55.71
10688;BME280;5392;42.688;23.298;2023-04-22T08:41:57;57363.31;;;-144.48;55.57
10688;BME280;5392;42.688;23.298;2023-04-22T08:44:24;57398.81;;;-144.48;55.49
10688;BME280;5392;42.688;23.298;2023-04-22T08:46:52;57367.50;;;-144.48;55.60
10688;BME280;5392;42.688;23.298;2023-04-22T08:49:19;57367.50;;;-144.48;56.75
10688;BME280;5392;42.688;23.298;2023-04-22T08:51:45;57400.91;;;-144.48;55.91
10688;BME280;5392;42.688;23.298;2023-04-22T08:54:12;57354.97;;;-144.48;55.65
10688;BME280;5392;42.688;23.298;2023-04-22T08:56:43;57375.84;;;-144.48;54.54
10688;BME280;5392;42.688;23.298;2023-04-22T08:59:11;57369.59;;;-144.48;54.57
10688;BME280;5392;42.688;23.298;2023-04-22T09:01:41;57373.75;;;-144.48;54.33
10688;BME280;5392;42.688;23.298;2023-04-22T09:04:09;57400.91;;;-144.48;54.79
10688;BME280;5392;42.688;23.298;2023-04-22T09:06:37;57361.25;;;-144.48;54.83
10688;BME280;5392;42.688;23.298;2023-04-22T09:09:04;57400.91;;;-144.48;56.56
10688;BME280;5392;42.688;23.298;2023-04-22T09:11:32;57367.50;;;-144.48;56.71
10688;BME280;5392;42.688;23.298;2023-04-22T09:13:59;57405.06;;;-144.48;56.48
10688;BME280;5392;42.688;23.298;2023-04-22T09:16:25;57396.72;;;-144.48;55.34
10688;BME280;5392;42.688;23.298;2023-04-22T09:18:55;57350.81;;;-144.48;54.37
10688;BME280;5392;42.688;23.298;2023-04-22T09:21:26;57382.13;;;-144.48;54.42
10688;BME280;5392;42.688;23.298;2023-04-22T09:23:59;57392.56;;;-144.48;54.68
10688;BME280;5392;42.688;23.298;2023-04-22T09:26:27;57367.50;;;-144.48;54.44
10688;BME280;5392;42.688;23.298;2023-04-22T09:28:56;57380.03;;;-144.48;54.59
10688;BME280;5392;42.688;23.298;2023-04-22T09:31:24;57398.81;;;-144.48;54.44
10688;BME280;5392;42.688;23.298;2023-04-22T09:33:53;57363.31;;;-144.48;54.01
10688;BME280;5392;42.688;23.298;2023-04-22T09:36:27;57375.84;;;-144.48;54.26
10688;BME280;5392;42.688;23.298;2023-04-22T09:38:57;57380.03;;;-144.48;54.63
10688;BME280;5392;42.688;23.298;2023-04-22T09:41:28;57367.50;;;-144.48;53.81
10688;BME280;5392;42.688;23.298;2023-04-22T09:43:56;57411.34;;;-144.48;54.73
10688;BME280;5392;42.688;23.298;2023-04-22T09:46:24;57400.91;;;-144.48;55.36
10688;BME280;5392;42.688;23.298;2023-04-22T09:48:56;57417.59;;;-144.48;55.61
10688;BME280;5392;42.688;23.298;2023-04-22T09:51:24;57423.88;;;-144.48;55.41
10688;BME280;5392;42.688;23.298;2023-04-22T09:54:03;57390.47;;;-144.48;54.76
10688;BME280;5392;42.688;23.298;2023-04-22T09:56:51;57394.63;;;-144.48;57.72
10688;BME280;5392;42.688;23.298;2023-04-22T09:59:27;57417.59;;;-144.48;58.70
10688;BME280;5392;42.688;23.298;2023-04-22T10:01:56;57417.59;;;-144.48;60.74
10688;BME280;5392;42.688;23.298;2023-04-22T10:04:23;57448.91;;;-144.48;60.04
10688;BME280;5392;42.688;23.298;2023-04-22T10:06:52;57419.69;;;-144.48;60.04
10688;BME280;5392;42.688;23.298;2023-04-22T10:09:21;57390.47;;;-144.48;60.33
10688;BME280;5392;42.688;23.298;2023-04-22T10:11:50;57440.56;;;-144.48;59.70
10688;BME280;5392;42.688;23.298;2023-04-22T10:14:21;57438.47;;;-144.48;59.83
10688;BME280;5392;42.688;23.298;2023-04-22T10:16:49;57415.50;;;-144.48;60.07
10688;BME280;5392;42.688;23.298;2023-04-22T10:19:20;57453.09;;;-144.48;60.71
10688;BME280;5392;42.688;23.298;2023-04-22T10:21:50;57407.16;;;-144.48;59.79
10688;BME280;5392;42.688;23.298;2023-04-22T10:24:18;57421.78;;;-144.48;58.08
10688;BME280;5392;42.688;23.298;2023-04-22T10:26:55;57388.38;;;-144.48;58.63
10688;BME280;5392;42.688;23.298;2023-04-22T10:29:25;57382.13;;;-144.48;58.62
10688;BME280;5392;42.688;23.298;2023-04-22T10:34:36;57392.56;;;-144.48;58.56
10688;BME280;5392;42.688;23.298;2023-04-22T10:37:08;57388.38;;;-144.48;58.59
10688;BME280;5392;42.688;23.298;2023-04-22T10:39:35;57398.81;;;-144.48;58.37
10688;BME280;5392;42.688;23.298;2023-04-22T10:44:29;57405.06;;;-144.48;58.86
10688;BME280;5392;42.688;23.298;2023-04-22T10:47:09;57359.16;;;-144.48;58.93
10688;BME280;5392;42.688;23.298;2023-04-22T10:49:36;57388.38;;;-144.48;58.70
10688;BME280;5392;42.688;23.298;2023-04-22T10:52:04;57382.13;;;-144.48;58.05
10688;BME280;5392;42.688;23.298;2023-04-22T10:59:54;57398.81;;;-144.48;57.41
10688;BME280;5392;42.688;23.298;2023-04-22T11:02:23;57386.28;;;-144.48;58.58
10688;BME280;5392;42.688;23.298;2023-04-22T11:04:50;57419.69;;;-144.48;57.76
10688;BME280;5392;42.688;23.298;2023-04-22T11:10:01;57394.63;;;-144.48;57.46
10688;BME280;5392;42.688;23.298;2023-04-22T11:15:03;57411.34;;;-144.48;57.67
10688;BME280;5392;42.688;23.298;2023-04-22T11:17:30;57394.63;;;-144.48;59.58
10688;BME280;5392;42.688;23.298;2023-04-22T11:19:58;57380.03;;;-144.48;59.45
10688;BME280;5392;42.688;23.298;2023-04-22T11:22:25;57380.03;;;-144.48;58.82
10688;BME280;5392;42.688;23.298;2023-04-22T11:24:56;57394.63;;;-144.48;60.61
10688;BME280;5392;42.688;23.298;2023-04-22T11:27:23;57471.88;;;-144.48;61.61
10688;BME280;5392;42.688;23.298;2023-04-22T11:30:14;57398.81;;;-144.48;63.61
10688;BME280;5392;42.688;23.298;2023-04-22T11:32:44;57442.66;;;-144.48;64.17
10688;BME280;5392;42.688;23.298;2023-04-22T11:35:17;57459.34;;;-144.48;63.89
10688;BME280;5392;42.688;23.298;2023-04-22T11:37:51;57405.06;;;-144.48;62.85
10688;BME280;5392;42.688;23.298;2023-04-22T11:40:19;57446.81;;;-144.48;63.59
10688;BME280;5392;42.688;23.298;2023-04-22T11:42:57;57440.56;;;-144.48;62.99
10688;BME280;5392;42.688;23.298;2023-04-22T11:45:25;57473.97;;;-144.48;64.80
10688;BME280;5392;42.688;23.298;2023-04-22T11:47:52;57394.63;;;-144.48;65.03
10688;BME280;5392;42.688;23.298;2023-04-22T11:50:27;57409.25;;;-144.48;65.65
10688;BME280;5392;42.688;23.298;2023-04-22T11:52:58;57417.59;;;-144.48;66.39
10688;BME280;5392;42.688;23.298;2023-04-22T11:55:28;57415.50;;;-144.48;65.20
10688;BME280;5392;42.688;23.298;2023-04-22T12:00:31;57400.91;;;-144.48;65.09
10688;BME280;5392;42.688;23.298;2023-04-22T12:03:00;57407.16;;;-144.48;66.21
10688;BME280;5392;42.688;23.298;2023-04-22T12:08:07;57411.34;;;-144.48;66.07
10688;BME280;5392;42.688;23.298;2023-04-22T12:10:42;57415.50;;;-144.48;68.72
10688;BME280;5392;42.688;23.298;2023-04-22T12:13:17;57407.16;;;-144.48;69.34
10688;BME280;5392;42.688;23.298;2023-04-22T12:15:44;57405.06;;;-144.48;70.13
10688;BME280;5392;42.688;23.298;2023-04-22T12:18:11;57396.72;;;-144.48;68.30
10688;BME280;5392;42.688;23.298;2023-04-22T12:20:40;57415.50;;;-144.48;68.32
10688;BME280;5392;42.688;23.298;2023-04-22T12:23:14;57405.06;;;-144.48;68.26
10688;BME280;5392;42.688;23.298;2023-04-22T12:25:41;57394.63;;;-144.48;67.39
10688;BME280;5392;42.688;23.298;2023-04-22T12:28:09;57440.56;;;-144.48;69.58
10688;BME280;5392;42.688;23.298;2023-04-22T12:30:36;57400.91;;;-144.48;68.58
10688;BME280;5392;42.688;23.298;2023-04-22T12:33:03;57392.56;;;-144.48;65.74
10688;BME280;5392;42.688;23.298;2023-04-22T12:35:29;57394.63;;;-144.48;66.74
10688;BME280;5392;42.688;23.298;2023-04-22T12:37:56;57388.38;;;-144.48;67.16
10688;BME280;5392;42.688;23.298;2023-04-22T12:40:23;57409.25;;;-144.48;67.22
10688;BME280;5392;42.688;23.298;2023-04-22T12:42:50;57400.91;;;-144.48;69.54
10688;BME280;5392;42.688;23.298;2023-04-22T12:45:16;57442.66;;;-144.48;69.19
10688;BME280;5392;42.688;23.298;2023-04-22T12:47:43;57398.81;;;-144.48;68.03
10688;BME280;5392;42.688;23.298;2023-04-22T12:50:11;57451.00;;;-144.48;68.65
10688;BME280;5392;42.688;23.298;2023-04-22T12:52:38;57394.63;;;-144.48;69.26
10688;BME280;5392;42.688;23.298;2023-04-22T12:55:05;57409.25;;;-144.48;67.41
10688;BME280;5392;42.688;23.298;2023-04-22T12:57:31;57407.16;;;-144.48;67.17
10688;BME280;5392;42.688;23.298;2023-04-22T12:59:58;57380.03;;;-144.48;67.53